Sparta, WI

10:35 PM CDT on April 27, 2017 (GMT -0500)
Sparta-Fort McCoy

Weather History for KCMY - November, 2012

Change the Weather History Date:

Friday, November 30, 2012

  Actual Average Record
Temperature  
Mean Temperature 34 °F -  
Max Temperature 35 °F 35 °F 57 °F (1962)
Min Temperature 32 °F 19 °F -10 °F (1976)
Degree Days  
Heating Degree Days 32    
Moisture  
Dew Point 32 °F    
Average Humidity 93    
Maximum Humidity 100    
Minimum Humidity 87    
Precipitation  
Precipitation 0.00 in - - ()
Sea Level Pressure  
Sea Level Pressure 30.15 in    
Wind  
Wind Speed 9 mph (East)    
Max Wind Speed 14 mph    
Max Gust Speed 18 mph    
Visibility 6 miles    
Events      
Averages and records for this station are not official NWS values.
T = Trace of Precipitation, MM = Missing Value Source: NWS Daily Summary

Daily Weather History Graph

Daily Weather History Graph

Search for Another Location

Airport or City:

Trip Planner

Search our weather history database for the weather conditions in past years. The results will help you decide how hot, cold, wet, or windy it might be!

Date:

Astronomy

Nov. 30, 2012 Rise Set
Actual Time 7:16 AM CST 4:26 PM CST
Civil Twilight 6:44 AM CST 4:58 PM CST
Nautical Twilight 6:08 AM CST 5:34 PM CST
Astronomical Twilight 5:33 AM CST 6:09 PM CST
Moon 6:21 PM CST (11/30) 8:48 AM CST (11/30)
Length of Visible Light 10h 14m
Length of Day
9h 09m
Waning Gibbous, 96% of the Moon is Illuminated
Nov 30
Waning Gibbous
Dec 6
Last Quarter
Dec 13
New
Dec 19
First Quarter
Dec 28
Full

Hourly Weather History & Observations

Time (CST) Temp. Windchill Dew Point Humidity Pressure Visibility Wind Dir Wind Speed Gust Speed Precip Events Conditions
12:15 AM 33.8 °F 25.8 °F 30.2 °F 87% 30.12 in 10.0 mi East 10.4 mph - N/A   Mostly Cloudy
12:35 AM 33.8 °F 25.3 °F 30.2 °F 87% 30.12 in 10.0 mi East 11.5 mph 16.1 mph N/A   Overcast
12:55 AM 33.8 °F 25.3 °F 30.2 °F 87% 30.10 in 10.0 mi East 11.5 mph - N/A   Overcast
1:15 AM 33.8 °F 25.8 °F 30.2 °F 87% 30.10 in 10.0 mi East 10.4 mph - N/A   Overcast
1:35 AM 33.8 °F 25.8 °F 30.2 °F 87% 30.10 in 10.0 mi ENE 10.4 mph 16.1 mph N/A   Overcast
1:55 AM 33.8 °F 25.8 °F 30.2 °F 87% 30.11 in 10.0 mi East 10.4 mph - N/A   Overcast
2:15 AM 33.8 °F 25.3 °F 30.2 °F 87% 30.10 in 10.0 mi East 11.5 mph 17.3 mph N/A   Overcast
2:35 AM 33.8 °F 24.8 °F 30.2 °F 87% 30.09 in 10.0 mi East 12.7 mph 16.1 mph N/A   Overcast
2:55 AM 32.0 °F 24.8 °F 30.2 °F 93% 30.10 in 10.0 mi East 8.1 mph 17.3 mph N/A   Overcast
3:15 AM 32.0 °F 24.2 °F 30.2 °F 93% 30.10 in 10.0 mi ENE 9.2 mph - N/A   Overcast
3:35 AM 32.0 °F 23.6 °F 30.2 °F 93% 30.10 in 10.0 mi East 10.4 mph - N/A   Overcast
3:55 AM 32.0 °F 24.8 °F 30.2 °F 93% 30.11 in 10.0 mi ENE 8.1 mph - N/A   Overcast
4:15 AM 32.0 °F 23.6 °F 30.2 °F 93% 30.11 in 10.0 mi ENE 10.4 mph - N/A   Overcast
4:35 AM 32.0 °F 24.2 °F 30.2 °F 93% 30.12 in 10.0 mi ENE 9.2 mph - N/A   Overcast
4:55 AM 32.0 °F 23.6 °F 30.2 °F 93% 30.12 in 10.0 mi East 10.4 mph - N/A   Overcast
5:15 AM 32.0 °F 23.0 °F 30.2 °F 93% 30.12 in 10.0 mi East 11.5 mph - N/A   Overcast
5:35 AM 32.0 °F 23.6 °F 30.2 °F 93% 30.13 in 10.0 mi ENE 10.4 mph - N/A   Overcast
5:55 AM 32.0 °F 22.1 °F 30.2 °F 93% 30.13 in 10.0 mi East 13.8 mph 17.3 mph N/A   Overcast
6:15 AM 32.0 °F 22.1 °F 30.2 °F 93% 30.13 in 10.0 mi ENE 13.8 mph 18.4 mph N/A   Overcast
6:35 AM 32.0 °F 23.6 °F 30.2 °F 93% 30.14 in 7.0 mi ENE 10.4 mph - N/A   Overcast
6:55 AM 32.0 °F 24.2 °F 30.2 °F 93% 30.15 in 7.0 mi ENE 9.2 mph - N/A   Overcast
7:15 AM 32.0 °F 25.6 °F 30.2 °F 93% 30.15 in 7.0 mi ENE 6.9 mph 16.1 mph N/A   Overcast
7:35 AM 32.0 °F 22.5 °F 30.2 °F 93% 30.15 in 7.0 mi ENE 12.7 mph - N/A   Overcast
7:55 AM 32.0 °F 24.8 °F 30.2 °F 93% 30.16 in 7.0 mi ENE 8.1 mph - N/A   Overcast
8:15 AM 32.0 °F 24.8 °F 30.2 °F 93% 30.16 in 7.0 mi ENE 8.1 mph - N/A   Overcast
8:35 AM 32.0 °F 24.8 °F 30.2 °F 93% 30.17 in 7.0 mi East 8.1 mph - N/A   Overcast
8:55 AM 32.0 °F 26.4 °F 30.2 °F 93% 30.17 in 7.0 mi East 5.8 mph - N/A   Overcast
9:15 AM 32.0 °F 25.6 °F 30.2 °F 93% 30.17 in 5.0 mi East 6.9 mph - N/A   Overcast
9:35 AM 32.0 °F 25.6 °F 30.2 °F 93% 30.18 in 5.0 mi NE 6.9 mph - N/A   Overcast
9:55 AM 32.0 °F 25.6 °F 30.2 °F 93% 30.18 in 5.0 mi East 6.9 mph - N/A   Overcast
10:15 AM 32.0 °F 26.4 °F 30.2 °F 93% 30.18 in 5.0 mi NE 5.8 mph - N/A   Overcast
10:35 AM 32.0 °F 26.4 °F 30.2 °F 93% 30.18 in 5.0 mi ENE 5.8 mph - N/A   Overcast
10:55 AM 32.0 °F 24.8 °F 32.0 °F 100% 30.16 in 5.0 mi East 8.1 mph - N/A   Overcast
11:15 AM 32.0 °F 25.6 °F 32.0 °F 100% 30.17 in 5.0 mi ENE 6.9 mph - N/A   Overcast
11:35 AM 32.0 °F 25.6 °F 32.0 °F 100% 30.17 in 5.0 mi East 6.9 mph - N/A   Overcast
11:55 AM 32.0 °F 27.5 °F 32.0 °F 100% 30.16 in 5.0 mi East 4.6 mph - N/A   Overcast
12:15 PM 32.0 °F 25.6 °F 32.0 °F 100% 30.16 in 5.0 mi East 6.9 mph - N/A   Overcast
12:35 PM 32.0 °F 25.6 °F 32.0 °F 100% 30.16 in 5.0 mi East 6.9 mph - N/A   Overcast
12:55 PM 33.8 °F 28.6 °F 32.0 °F 93% 30.15 in 5.0 mi ENE 5.8 mph - N/A   Overcast
1:15 PM 33.8 °F 27.7 °F 32.0 °F 93% 30.15 in 5.0 mi East 6.9 mph - N/A   Overcast
1:35 PM 33.8 °F 28.6 °F 32.0 °F 93% 30.15 in 5.0 mi East 5.8 mph - N/A   Overcast
1:55 PM 33.8 °F 29.6 °F 32.0 °F 93% 30.16 in 5.0 mi NE 4.6 mph - N/A   Overcast
2:15 PM 33.8 °F 28.6 °F 32.0 °F 93% 30.15 in 5.0 mi ENE 5.8 mph - N/A   Overcast
2:35 PM 33.8 °F 29.6 °F 32.0 °F 93% 30.17 in 5.0 mi NE 4.6 mph - N/A   Overcast
2:55 PM 33.8 °F 27.0 °F 32.0 °F 93% 30.16 in 7.0 mi East 8.1 mph - N/A   Overcast
3:15 PM 33.8 °F 28.6 °F 32.0 °F 93% 30.16 in 7.0 mi ENE 5.8 mph - N/A   Overcast
3:35 PM 33.8 °F 29.6 °F 32.0 °F 93% 30.17 in 7.0 mi NE 4.6 mph - N/A   Overcast
3:55 PM 33.8 °F 28.6 °F 32.0 °F 93% 30.17 in 7.0 mi ENE 5.8 mph - N/A   Overcast
4:15 PM 33.8 °F 26.4 °F 32.0 °F 93% 30.18 in 7.0 mi ENE 9.2 mph - N/A   Overcast
4:35 PM 33.8 °F 28.6 °F 32.0 °F 93% 30.18 in 7.0 mi ENE 5.8 mph - N/A   Overcast
4:55 PM 33.8 °F 28.6 °F 32.0 °F 93% 30.18 in 7.0 mi East 5.8 mph - N/A   Overcast
5:15 PM 33.8 °F 27.7 °F 32.0 °F 93% 30.18 in 5.0 mi East 6.9 mph - N/A   Overcast
5:35 PM 33.8 °F 29.6 °F 32.0 °F 93% 30.18 in 5.0 mi East 4.6 mph - N/A   Overcast
5:55 PM 33.8 °F 27.7 °F 32.0 °F 93% 30.18 in 4.0 mi East 6.9 mph - N/A   Overcast
6:15 PM 33.8 °F 28.6 °F 32.0 °F 93% 30.18 in 3.0 mi East 5.8 mph - N/A   Overcast
6:35 PM 33.8 °F 27.0 °F 32.0 °F 93% 30.16 in 3.0 mi East 8.1 mph - N/A   Overcast
6:55 PM 33.8 °F 28.6 °F 33.8 °F 100% 30.16 in 2.5 mi ESE 5.8 mph - N/A   Overcast
7:15 PM 33.8 °F 29.6 °F 33.8 °F 100% 30.16 in 2.5 mi ESE 4.6 mph - N/A   Overcast
7:35 PM 33.8 °F 28.6 °F 33.8 °F 100% 30.16 in 2.5 mi East 5.8 mph - N/A   Overcast
7:55 PM 33.8 °F 30.8 °F 33.8 °F 100% 30.17 in 3.0 mi ESE 3.5 mph - N/A   Overcast
8:15 PM 33.8 °F 28.6 °F 33.8 °F 100% 30.15 in 3.0 mi SE 5.8 mph - N/A   Overcast
8:35 PM 33.8 °F 26.4 °F 33.8 °F 100% 30.15 in 4.0 mi ESE 9.2 mph - N/A   Overcast
8:55 PM 35.6 °F 31.7 °F 33.8 °F 93% 30.15 in 4.0 mi SE 4.6 mph - N/A   Overcast
9:15 PM 35.6 °F 28.0 °F 33.8 °F 93% 30.16 in 4.0 mi ESE 10.4 mph - N/A   Overcast
9:35 PM 35.6 °F 29.9 °F 33.8 °F 93% 30.16 in 4.0 mi SE 6.9 mph - N/A   Overcast
9:55 PM 35.6 °F 30.7 °F 33.8 °F 93% 30.15 in 4.0 mi ESE 5.8 mph - N/A   Overcast
10:15 PM 35.6 °F 29.2 °F 33.8 °F 93% 30.15 in 4.0 mi ESE 8.1 mph - N/A   Overcast
10:35 PM 35.6 °F 29.9 °F 33.8 °F 93% 30.15 in 4.0 mi ESE 6.9 mph - N/A   Overcast
10:55 PM 35.6 °F 29.2 °F 33.8 °F 93% 30.14 in 4.0 mi ESE 8.1 mph - N/A   Overcast
11:15 PM 35.6 °F 30.7 °F 33.8 °F 93% 30.15 in 4.0 mi ESE 5.8 mph - N/A   Overcast
11:35 PM 35.6 °F 30.7 °F 33.8 °F 93% 30.15 in 4.0 mi ESE 5.8 mph - N/A   Overcast
11:55 PM 35.6 °F 29.9 °F 33.8 °F 93% 30.15 in 4.0 mi ESE 6.9 mph - N/A   Overcast